Portada
METAR-TAF:

METAR-TAF

Aeropuertos :

Boothville-Venice, Luisiana, Estados Unidos

latitud: 29-20N, longitud: 089-24W, altitud: 0 m

Observación

El informe se hizo hace 13 minutos, a las 20:51 UTC
Viento 8 kt del oeste-noroeste
Temperatura 21°C
Humedad 35%
Presión 1017 hPa
Visibilidad: 16.1 km
Cielo despejado

METAR: KBVE 202051Z AUTO 29008KT 10SM CLR 21/05 A3002 RMK AO2 SLP165 T02110050 58014

Hora: 16:04 (21:04 UTC)


TAF: falta

Observaciones y pronósticos meteorológicos de más de 4000 aeropuertos (mensajes METAR y TAF).

Los puntos amarillos y rojos representan las estaciones disponibles.

Ponga el ratón en el punto deseado para ver el nombre de la estación.

Haga clic para ver las observaciones y los pronósticos meteorológicos.

Para cambiar el mapa : haga clic en los botones verdes con una cruz de color negro para hacer un zoom, en el botón verde con un guión para alejar o en las flechas verdes para mapas adyacentes.


METAR-TAF: